Time;durP1;ratioP1;P1;durP2;ratioP2;P2;SDS_P1;SDS_P2;PMS_P1;PMS_P2;Temp;Humidity;BMP_temperature;BMP_pressure;BME280_temperature;BME280_humidity;BME280_pressure;Samples;Min_cycle;Max_cycle;Signal;HPM_P1;HPM_P2
2022/04/22 00:02:01;;;;;;;;;9.00;8.00;;;;;;;;5122683;27;45255;-75
2022/04/22 00:04:26;;;;;;;;;7.33;6.33;;;;;;;;5121662;27;45506;-75
2022/04/22 00:06:52;;;;;;;;;7.67;7.67;;;;;;;;5122296;27;46388;-75
2022/04/22 00:09:17;;;;;;;;;7.33;6.67;;;;;;;;5122456;27;45322;-75
2022/04/22 00:11:42;;;;;;;;;9.00;8.00;;;;;;;;5122654;27;45660;-75
2022/04/22 00:14:07;;;;;;;;;7.33;7.00;;;;;;;;5103532;27;45576;-75
2022/04/22 00:16:32;;;;;;;;;9.67;8.33;;;;;;;;5121817;27;46651;-75
2022/04/22 00:18:58;;;;;;;;;9.33;9.33;;;;;;;;5122264;27;45399;-75
2022/04/22 00:21:23;;;;;;;;;10.00;10.00;;;;;;;;5122158;27;45391;-74
2022/04/22 00:23:50;;;;;;;;;11.67;11.00;;;;;;;;5103487;27;46014;-74
2022/04/22 00:26:18;;;;;;;;;10.67;10.67;;;;;;;;5121986;27;45361;-74
2022/04/22 00:28:43;;;;;;;;;9.67;9.67;;;;;;;;5103274;27;45355;-75
2022/04/22 00:31:09;;;;;;;;;10.00;10.00;;;;;;;;5122060;27;45288;-75
2022/04/22 00:33:34;;;;;;;;;9.00;8.00;;;;;;;;5121576;27;45268;-76
2022/04/22 00:36:00;;;;;;;;;11.00;11.00;;;;;;;;5121764;27;46068;-75
2022/04/22 00:38:25;;;;;;;;;13.33;10.67;;;;;;;;5121674;27;45286;-75
2022/04/22 00:40:52;;;;;;;;;10.00;9.33;;;;;;;;5122099;27;45248;-75
2022/04/22 00:43:18;;;;;;;;;9.33;8.67;;;;;;;;5103250;27;47253;-75
2022/04/22 00:45:44;;;;;;;;;11.00;10.67;;;;;;;;5121413;27;45372;-76
2022/04/22 00:48:09;;;;;;;;;8.00;8.00;;;;;;;;5121667;27;45378;-75
2022/04/22 00:50:35;;;;;;;;;8.00;8.00;;;;;;;;5121735;27;45311;-75
2022/04/22 00:53:00;;;;;;;;;9.00;9.00;;;;;;;;5121331;27;45430;-75
2022/04/22 00:55:26;;;;;;;;;10.00;10.00;;;;;;;;5121597;27;45347;-76
2022/04/22 00:57:52;;;;;;;;;8.67;8.67;;;;;;;;5121741;27;45345;-76
2022/04/22 01:00:17;;;;;;;;;8.67;8.67;;;;;;;;5102737;27;45966;-75
2022/04/22 01:02:42;;;;;;;;;10.00;9.67;;;;;;;;5121611;27;45373;-76
2022/04/22 01:10:36;;;;;;;;;8.33;8.33;;;;;;;;5121360;27;45479;-75
2022/04/22 01:13:01;;;;;;;;;10.33;10.33;;;;;;;;5121152;27;45522;-75
2022/04/22 01:15:27;;;;;;;;;9.67;9.67;;;;;;;;5119655;27;46360;-75
2022/04/22 01:17:52;;;;;;;;;13.33;13.00;;;;;;;;5121270;27;45365;-75
2022/04/22 01:20:17;;;;;;;;;12.00;12.00;;;;;;;;5121366;27;45326;-75
2022/04/22 01:22:42;;;;;;;;;12.67;11.00;;;;;;;;5121196;27;45316;-76
2022/04/22 01:25:08;;;;;;;;;10.00;8.33;;;;;;;;5121170;27;45519;-76
2022/04/22 01:27:33;;;;;;;;;11.00;11.00;;;;;;;;5121096;27;45346;-75
2022/04/22 01:30:03;;;;;;;;;8.00;7.00;;;;;;;;5120970;27;45271;-75
2022/04/22 01:32:29;;;;;;;;;8.33;8.33;;;;;;;;5120892;27;45373;-75
2022/04/22 01:34:54;;;;;;;;;11.67;8.33;;;;;;;;5102029;27;48568;-75
2022/04/22 01:37:19;;;;;;;;;10.00;10.00;;;;;;;;5120836;27;45291;-75
2022/04/22 01:39:45;;;;;;;;;8.00;8.00;;;;;;;;5121040;27;45656;-75
2022/04/22 01:42:10;;;;;;;;;9.00;9.00;;;;;;;;5121010;27;45356;-76
2022/04/22 01:44:38;;;;;;;;;10.67;10.67;;;;;;;;5102041;27;46751;-75
2022/04/22 01:47:04;;;;;;;;;12.33;9.00;;;;;;;;5102323;27;46178;-75
2022/04/22 01:49:29;;;;;;;;;11.33;10.00;;;;;;;;5120750;27;45617;-75
2022/04/22 01:51:55;;;;;;;;;8.33;8.33;;;;;;;;5120283;27;45281;-75
2022/04/22 01:54:20;;;;;;;;;11.00;10.33;;;;;;;;5120707;27;45864;-76
2022/04/22 01:56:45;;;;;;;;;9.00;9.00;;;;;;;;5120727;27;45220;-75
2022/04/22 01:59:11;;;;;;;;;7.00;7.00;;;;;;;;5120593;27;45392;-75
2022/04/22 02:01:36;;;;;;;;;10.33;10.33;;;;;;;;5102142;27;47177;-75
2022/04/22 02:04:01;;;;;;;;;6.33;6.00;;;;;;;;5120635;27;46193;-75
2022/04/22 02:06:28;;;;;;;;;8.33;8.33;;;;;;;;5120013;27;45345;-75
2022/04/22 02:08:53;;;;;;;;;9.00;9.00;;;;;;;;5100717;27;45362;-75
2022/04/22 02:11:18;;;;;;;;;11.67;11.67;;;;;;;;5119124;27;45478;-75
2022/04/22 02:13:43;;;;;;;;;10.67;10.67;;;;;;;;5118892;27;46734;-75
2022/04/22 02:16:09;;;;;;;;;10.00;10.00;;;;;;;;5118645;27;45419;-75
2022/04/22 02:18:36;;;;;;;;;10.00;10.00;;;;;;;;5119527;27;45325;-75
2022/04/22 02:21:02;;;;;;;;;9.00;9.00;;;;;;;;5119280;27;45391;-74
2022/04/22 02:23:27;;;;;;;;;13.67;11.67;;;;;;;;5117777;27;45223;-75
2022/04/22 02:25:52;;;;;;;;;10.67;10.67;;;;;;;;5104917;27;45366;-75
2022/04/22 02:28:33;;;;;;;;;13.67;13.00;;;;;;;;5124418;27;45193;-75
2022/04/22 02:31:06;;;;;;;;;12.33;11.00;;;;;;;;5124025;27;45413;-75
2022/04/22 02:33:31;;;;;;;;;11.00;11.00;;;;;;;;5123736;27;45331;-75
2022/04/22 02:35:56;;;;;;;;;15.00;13.00;;;;;;;;5123907;27;45230;-75
2022/04/22 02:38:22;;;;;;;;;16.33;14.00;;;;;;;;5105247;27;45417;-75
2022/04/22 02:46:14;;;;;;;;;17.00;16.00;;;;;;;;5123619;27;45172;-75
2022/04/22 02:48:40;;;;;;;;;14.67;12.00;;;;;;;;5123917;27;45310;-76
2022/04/22 02:51:05;;;;;;;;;11.33;11.33;;;;;;;;5123583;27;45449;-75
2022/04/22 02:53:30;;;;;;;;;12.00;11.67;;;;;;;;5104779;27;48636;-75
2022/04/22 02:55:56;;;;;;;;;11.00;11.00;;;;;;;;5104938;27;45843;-75
2022/04/22 02:58:21;;;;;;;;;13.00;12.33;;;;;;;;5123813;27;45330;-75
2022/04/22 03:00:46;;;;;;;;;11.33;11.33;;;;;;;;5123399;27;45381;-75
2022/04/22 03:03:11;;;;;;;;;12.00;11.00;;;;;;;;5123620;27;45273;-75
2022/04/22 03:05:37;;;;;;;;;7.00;7.00;;;;;;;;5105026;27;45305;-75
2022/04/22 03:08:02;;;;;;;;;9.67;9.67;;;;;;;;5123517;27;45409;-75
2022/04/22 03:10:27;;;;;;;;;12.00;10.00;;;;;;;;5123538;27;45426;-75
2022/04/22 03:12:53;;;;;;;;;12.00;10.67;;;;;;;;5123255;27;45362;-76
2022/04/22 03:15:18;;;;;;;;;11.67;11.00;;;;;;;;5123183;27;45338;-75
2022/04/22 03:17:43;;;;;;;;;12.33;12.00;;;;;;;;5123459;27;45376;-75
2022/04/22 03:20:09;;;;;;;;;11.67;11.33;;;;;;;;5123334;27;45316;-75
2022/04/22 03:22:36;;;;;;;;;10.67;10.00;;;;;;;;5123028;27;46107;-75
2022/04/22 03:25:02;;;;;;;;;11.67;11.67;;;;;;;;5123213;27;45373;-74
2022/04/22 03:27:27;;;;;;;;;15.67;15.67;;;;;;;;5123299;27;45293;-75
2022/04/22 03:29:52;;;;;;;;;14.00;14.00;;;;;;;;5104554;27;46805;-75
2022/04/22 03:32:17;;;;;;;;;11.00;11.00;;;;;;;;5123041;27;45277;-75
2022/04/22 03:34:43;;;;;;;;;11.33;10.67;;;;;;;;5104431;27;45306;-76
2022/04/22 03:37:08;;;;;;;;;11.67;11.67;;;;;;;;5122677;27;45270;-75
2022/04/22 03:39:33;;;;;;;;;14.00;12.33;;;;;;;;5122431;27;45207;-75
2022/04/22 03:41:58;;;;;;;;;12.67;12.33;;;;;;;;5122839;27;46574;-76
2022/04/22 03:44:24;;;;;;;;;12.00;11.00;;;;;;;;5122832;27;45255;-75
2022/04/22 03:46:49;;;;;;;;;10.33;9.00;;;;;;;;5122922;27;45553;-75
2022/04/22 03:49:14;;;;;;;;;13.00;11.67;;;;;;;;5122923;27;45614;-75
2022/04/22 03:51:39;;;;;;;;;11.67;11.67;;;;;;;;5122382;27;45499;-75
2022/04/22 03:54:04;;;;;;;;;10.33;10.33;;;;;;;;5122753;27;45333;-75
2022/04/22 03:59:13;;;;;;;;;11.00;10.33;;;;;;;;5122353;27;45243;-74
2022/04/22 04:01:38;;;;;;;;;10.00;9.00;;;;;;;;5122562;27;45152;-75
2022/04/22 04:04:04;;;;;;;;;11.67;11.67;;;;;;;;5122498;27;45337;-74
2022/04/22 04:06:29;;;;;;;;;9.00;8.00;;;;;;;;5122683;27;45316;-75
2022/04/22 04:17:06;;;;;;;;;13.00;12.00;;;;;;;;5101787;27;45338;-75
2022/04/22 04:24:59;;;;;;;;;12.00;12.00;;;;;;;;5101523;27;45338;-74
2022/04/22 04:27:24;;;;;;;;;11.00;11.00;;;;;;;;5101790;27;45226;-76
2022/04/22 04:29:49;;;;;;;;;9.67;9.67;;;;;;;;5101367;27;45546;-75
2022/04/22 04:32:17;;;;;;;;;11.00;11.00;;;;;;;;5101451;27;46067;-75
2022/04/22 04:34:43;;;;;;;;;13.00;11.33;;;;;;;;5099978;27;45788;-74
2022/04/22 04:37:09;;;;;;;;;13.00;12.00;;;;;;;;5101355;27;45228;-75
2022/04/22 04:39:35;;;;;;;;;11.67;11.67;;;;;;;;5101173;27;45298;-75
2022/04/22 04:42:00;;;;;;;;;14.00;14.00;;;;;;;;5101186;27;45409;-75
2022/04/22 04:44:25;;;;;;;;;14.33;13.00;;;;;;;;5082715;27;45353;-75
2022/04/22 04:46:50;;;;;;;;;11.00;11.00;;;;;;;;5101536;27;45211;-75
2022/04/22 04:49:16;;;;;;;;;12.00;12.00;;;;;;;;5101045;27;45321;-75
2022/04/22 04:51:41;;;;;;;;;12.00;11.33;;;;;;;;5100864;27;45346;-75
2022/04/22 04:54:06;;;;;;;;;17.50;16.25;;;;;;;;5100931;27;45311;-75
2022/04/22 04:56:31;;;;;;;;;18.00;16.25;;;;;;;;5101397;27;45251;-75
2022/04/22 04:58:56;;;;;;;;;19.50;18.00;;;;;;;;5100852;27;45215;-75
2022/04/22 05:01:22;;;;;;;;;22.50;19.00;;;;;;;;5082648;27;47112;-75
2022/04/22 05:03:47;;;;;;;;;16.75;15.25;;;;;;;;5082564;27;45310;-76
2022/04/22 05:06:12;;;;;;;;;24.25;22.50;;;;;;;;5103876;27;45476;-73
2022/04/22 05:08:37;;;;;;;;;27.50;25.25;;;;;;;;5114116;27;46563;-74
2022/04/22 05:11:03;;;;;;;;;17.00;16.25;;;;;;;;5122525;27;46953;-74
2022/04/22 05:13:28;;;;;;;;;17.75;17.75;;;;;;;;5141998;27;45485;-75
2022/04/22 05:15:55;;;;;;;;;26.00;26.00;;;;;;;;5130560;27;45334;-74
2022/04/22 05:18:21;;;;;;;;;22.25;19.75;;;;;;;;5117127;27;45380;-75
2022/04/22 05:20:48;;;;;;;;;19.25;18.00;;;;;;;;5112356;27;47192;-75
2022/04/22 05:23:13;;;;;;;;;23.25;21.50;;;;;;;;5123324;27;45816;-74
2022/04/22 05:25:38;;;;;;;;;24.25;21.25;;;;;;;;5142201;27;45427;-75
2022/04/22 05:28:07;;;;;;;;;21.75;20.00;;;;;;;;5142138;27;45312;-74
2022/04/22 05:33:16;;;;;;;;;17.75;16.00;;;;;;;;5141654;27;45222;-74
2022/04/22 05:35:42;;;;;;;;;17.00;16.00;;;;;;;;5141997;27;45273;-73
2022/04/22 05:38:08;;;;;;;;;18.00;16.00;;;;;;;;5122993;27;46248;-74
2022/04/22 05:40:37;;;;;;;;;15.75;15.25;;;;;;;;5141604;27;46590;-74
2022/04/22 05:43:06;;;;;;;;;28.75;26.00;;;;;;;;5122887;27;45898;-74
2022/04/22 05:45:32;;;;;;;;;23.25;18.50;;;;;;;;5141453;27;45292;-74
2022/04/22 05:47:57;;;;;;;;;37.50;29.25;;;;;;;;5141444;27;45432;-73
2022/04/22 05:50:23;;;;;;;;;22.00;22.00;;;;;;;;5138356;27;45218;-75
2022/04/22 05:52:48;;;;;;;;;54.25;41.50;;;;;;;;5116754;27;45381;-75
2022/04/22 05:55:18;;;;;;;;;57.50;44.50;;;;;;;;5106464;27;45447;-75
2022/04/22 05:57:44;;;;;;;;;40.00;35.00;;;;;;;;5112259;27;46560;-75
2022/04/22 06:00:11;;;;;;;;;25.75;22.50;;;;;;;;5122621;27;48067;-75
2022/04/22 06:02:36;;;;;;;;;19.50;19.25;;;;;;;;5148686;27;45308;-75
2022/04/22 06:05:01;;;;;;;;;16.33;15.00;;;;;;;;5148813;27;45270;-76
2022/04/22 06:07:27;;;;;;;;;17.50;16.75;;;;;;;;5148777;27;45462;-75
2022/04/22 06:12:36;;;;;;;;;61.50;49.00;;;;;;;;5146974;27;45419;-76
2022/04/22 06:15:04;;;;;;;;;77.75;66.50;;;;;;;;5129383;27;45298;-75
2022/04/22 06:17:29;;;;;;;;;61.75;48.00;;;;;;;;5103210;27;46104;-75
2022/04/22 06:19:55;;;;;;;;;47.00;38.25;;;;;;;;5119752;27;45320;-75
2022/04/22 06:22:20;;;;;;;;;59.00;44.75;;;;;;;;5088300;27;45318;-76
2022/04/22 06:24:46;;;;;;;;;56.00;43.50;;;;;;;;5088281;27;45414;-76
2022/04/22 06:27:11;;;;;;;;;49.50;39.00;;;;;;;;5122466;27;45362;-76
2022/04/22 06:29:37;;;;;;;;;37.25;31.00;;;;;;;;5115247;27;45373;-75
2022/04/22 06:32:02;;;;;;;;;54.00;44.00;;;;;;;;5100736;27;45466;-75
2022/04/22 06:34:28;;;;;;;;;27.75;26.00;;;;;;;;5131139;27;45276;-75
2022/04/22 06:36:53;;;;;;;;;17.67;17.33;;;;;;;;5094947;27;45694;-76
2022/04/22 06:39:18;;;;;;;;;55.75;45.25;;;;;;;;5124937;27;45468;-75
2022/04/22 06:47:12;;;;;;;;;59.75;46.00;;;;;;;;5140451;27;45616;-76
2022/04/22 06:49:37;;;;;;;;;84.25;74.50;;;;;;;;5119518;27;45455;-77
2022/04/22 06:52:05;;;;;;;;;57.75;45.50;;;;;;;;5120257;27;45456;-77
2022/04/22 06:54:31;;;;;;;;;91.25;82.50;;;;;;;;5094037;27;45271;-77
2022/04/22 06:56:56;;;;;;;;;50.50;39.50;;;;;;;;5108108;27;46036;-76
2022/04/22 06:59:23;;;;;;;;;57.00;45.00;;;;;;;;5118284;27;46469;-75
2022/04/22 07:01:48;;;;;;;;;23.33;23.33;;;;;;;;5125485;27;45468;-76
2022/04/22 07:04:14;;;;;;;;;50.75;40.75;;;;;;;;5102492;27;45377;-75
2022/04/22 07:06:39;;;;;;;;;72.00;61.00;;;;;;;;5120274;27;45410;-76
2022/04/22 07:09:04;;;;;;;;;56.00;45.50;;;;;;;;5091872;27;47262;-77
2022/04/22 07:11:30;;;;;;;;;34.50;31.50;;;;;;;;5117048;27;45376;-76
2022/04/22 07:13:59;;;;;;;;;32.25;26.75;;;;;;;;5116775;27;45442;-75
2022/04/22 07:16:25;;;;;;;;;62.75;49.00;;;;;;;;5109800;27;46015;-75
2022/04/22 07:18:52;;;;;;;;;45.00;36.25;;;;;;;;5101111;27;46017;-74
2022/04/22 07:21:17;;;;;;;;;56.75;45.00;;;;;;;;5106547;27;45492;-73
2022/04/22 07:23:42;;;;;;;;;29.00;26.25;;;;;;;;5117986;27;45497;-74
2022/04/22 07:26:11;;;;;;;;;81.50;75.25;;;;;;;;5116111;27;45312;-74
2022/04/22 07:28:38;;;;;;;;;61.75;46.25;;;;;;;;5127235;27;45459;-75
2022/04/22 07:31:03;;;;;;;;;51.25;39.00;;;;;;;;5113501;27;46129;-76
2022/04/22 07:33:29;;;;;;;;;43.00;34.75;;;;;;;;5105459;27;45993;-75
2022/04/22 07:35:54;;;;;;;;;31.75;29.25;;;;;;;;5104037;27;46321;-75
2022/04/22 07:38:19;;;;;;;;;57.00;45.25;;;;;;;;5113084;27;45432;-74
2022/04/22 07:40:48;;;;;;;;;78.75;71.25;;;;;;;;5083252;27;45346;-75
2022/04/22 07:48:42;;;;;;;;;27.75;26.75;;;;;;;;5099568;27;46295;-74
2022/04/22 07:51:08;;;;;;;;;25.00;23.33;;;;;;;;5101104;27;45758;-73
2022/04/22 07:53:35;;;;;;;;;56.75;44.50;;;;;;;;5081619;27;45799;-74
2022/04/22 07:56:01;;;;;;;;;52.75;40.50;;;;;;;;5100181;27;45852;-74
2022/04/22 07:58:27;;;;;;;;;71.25;59.00;;;;;;;;5120566;27;45440;-74
2022/04/22 08:00:52;;;;;;;;;65.25;51.00;;;;;;;;5101962;27;45361;-74
2022/04/22 08:03:17;;;;;;;;;60.00;46.00;;;;;;;;5113737;27;45425;-74
2022/04/22 08:05:43;;;;;;;;;59.50;46.00;;;;;;;;5107386;27;45420;-75
2022/04/22 08:08:08;;;;;;;;;47.50;39.00;;;;;;;;5114696;27;45487;-75
2022/04/22 08:10:34;;;;;;;;;64.25;50.50;;;;;;;;5109454;27;45304;-75
2022/04/22 08:12:59;;;;;;;;;75.25;68.25;;;;;;;;5101830;27;45302;-76
2022/04/22 08:15:24;;;;;;;;;89.25;78.00;;;;;;;;5102778;27;45492;-74
2022/04/22 08:17:50;;;;;;;;;82.50;73.50;;;;;;;;5120558;27;46585;-75
2022/04/22 08:20:15;;;;;;;;;67.25;51.25;;;;;;;;5087019;27;45920;-75
2022/04/22 08:22:40;;;;;;;;;55.00;43.00;;;;;;;;5103559;27;45412;-74
2022/04/22 08:25:06;;;;;;;;;46.50;37.00;;;;;;;;5100436;27;45504;-74
2022/04/22 08:27:31;;;;;;;;;23.67;22.00;;;;;;;;5110773;27;46082;-74
2022/04/22 08:29:59;;;;;;;;;37.75;32.50;;;;;;;;5099463;27;45378;-74
2022/04/22 08:32:24;;;;;;;;;53.50;42.00;;;;;;;;5099306;27;45378;-75
2022/04/22 08:34:51;;;;;;;;;20.33;19.67;;;;;;;;5080790;27;45863;-74
2022/04/22 08:37:17;;;;;;;;;19.00;18.00;;;;;;;;5083294;27;45421;-74
2022/04/22 08:39:42;;;;;;;;;17.33;17.00;;;;;;;;5099282;27;45405;-74
2022/04/22 08:42:08;;;;;;;;;43.00;34.75;;;;;;;;5100710;27;45376;-74
2022/04/22 08:44:36;;;;;;;;;32.75;30.00;;;;;;;;5100593;27;45354;-75
2022/04/22 08:50:09;;;;;;;;;44.25;35.00;;;;;;;;5101299;27;45332;-74
2022/04/22 08:52:35;;;;;;;;;39.25;33.00;;;;;;;;5100155;27;45474;-73
2022/04/22 08:55:02;;;;;;;;;66.50;52.00;;;;;;;;5100577;27;45303;-74
2022/04/22 08:57:30;;;;;;;;;24.67;23.00;;;;;;;;5099936;27;45784;-74
2022/04/22 09:00:07;;;;;;;;;18.00;18.00;;;;;;;;5100320;27;45445;-76
2022/04/22 09:02:32;;;;;;;;;15.00;14.00;;;;;;;;5099070;27;46237;-75
2022/04/22 09:04:58;;;;;;;;;16.00;16.00;;;;;;;;5097336;27;47011;-75
2022/04/22 09:07:27;;;;;;;;;22.33;22.33;;;;;;;;5112586;27;45434;-75
2022/04/22 09:09:53;;;;;;;;;13.67;13.67;;;;;;;;5083452;27;45803;-75
2022/04/22 09:12:19;;;;;;;;;19.67;17.00;;;;;;;;5098883;27;45295;-75
2022/04/22 09:14:45;;;;;;;;;44.00;36.00;;;;;;;;5085882;27;46439;-74
2022/04/22 09:17:15;;;;;;;;;15.67;15.67;;;;;;;;5080482;27;48194;-73
2022/04/22 09:19:46;;;;;;;;;19.00;18.00;;;;;;;;5098512;27;45436;-75
2022/04/22 09:22:17;;;;;;;;;14.67;13.33;;;;;;;;5099653;27;45674;-74
2022/04/22 09:24:49;;;;;;;;;13.67;12.67;;;;;;;;5100161;27;45414;-74
2022/04/22 09:27:14;;;;;;;;;11.00;10.67;;;;;;;;5080582;27;48049;-75
2022/04/22 09:29:41;;;;;;;;;12.67;12.33;;;;;;;;5099721;27;45404;-73
2022/04/22 09:32:09;;;;;;;;;9.67;9.67;;;;;;;;5099822;27;45319;-74
2022/04/22 09:34:36;;;;;;;;;7.00;7.00;;;;;;;;5099980;27;45227;-73
2022/04/22 09:42:48;;;;;;;;;47.00;36.33;;;;;;;;5083030;27;45403;-74
2022/04/22 09:45:14;;;;;;;;;50.00;40.00;;;;;;;;5117956;27;45203;-75
2022/04/22 09:47:42;;;;;;;;;48.75;37.75;;;;;;;;5099853;27;46805;-75
2022/04/22 09:50:11;;;;;;;;;56.00;44.75;;;;;;;;5118939;27;45577;-73
2022/04/22 09:52:44;;;;;;;;;30.00;22.33;;;;;;;;5118913;27;45484;-73
2022/04/22 09:55:10;;;;;;;;;11.00;10.00;;;;;;;;5118259;27;45319;-73
2022/04/22 09:57:54;;;;;;;;;8.00;8.00;;;;;;;;5099982;27;46546;-73
2022/04/22 10:00:26;;;;;;;;;9.33;9.33;;;;;;;;5099881;27;45389;-74
2022/04/22 10:02:52;;;;;;;;;9.33;9.33;;;;;;;;5100380;27;45330;-76
2022/04/22 10:05:22;;;;;;;;;18.00;15.33;;;;;;;;5105355;27;45503;-73
2022/04/22 10:07:50;;;;;;;;;55.50;42.50;;;;;;;;5112389;27;45915;-74
2022/04/22 10:10:17;;;;;;;;;23.33;21.33;;;;;;;;5102070;27;45424;-75
2022/04/22 10:12:42;;;;;;;;;69.00;52.25;;;;;;;;5099853;27;45366;-73
2022/04/22 10:15:11;;;;;;;;;18.33;17.33;;;;;;;;5104644;27;45275;-72
2022/04/22 10:17:39;;;;;;;;;49.00;38.75;;;;;;;;5117884;27;46045;-73
2022/04/22 10:20:08;;;;;;;;;12.67;12.67;;;;;;;;5113558;27;45278;-73
2022/04/22 10:22:33;;;;;;;;;56.50;44.25;;;;;;;;5119354;27;45532;-74
2022/04/22 10:25:01;;;;;;;;;55.50;43.50;;;;;;;;5141030;27;45524;-74
2022/04/22 10:27:26;;;;;;;;;19.33;19.33;;;;;;;;5141220;27;46360;-75
2022/04/22 10:29:52;;;;;;;;;18.67;16.67;;;;;;;;5140937;27;45313;-74
2022/04/22 10:32:18;;;;;;;;;19.00;18.00;;;;;;;;5141220;27;45392;-74
2022/04/22 10:34:44;;;;;;;;;9.33;9.33;;;;;;;;5140815;27;45344;-74
2022/04/22 10:37:26;;;;;;;;;8.33;8.33;;;;;;;;5122124;27;47319;-73
2022/04/22 10:39:52;;;;;;;;;8.33;7.00;;;;;;;;5141167;27;45401;-74
2022/04/22 10:42:17;;;;;;;;;7.67;7.67;;;;;;;;5141126;27;45370;-74
2022/04/22 10:47:47;;;;;;;;;12.00;10.00;;;;;;;;5142226;27;45341;-75
2022/04/22 10:50:28;;;;;;;;;62.00;47.25;;;;;;;;5114756;27;45622;-76
2022/04/22 10:53:03;;;;;;;;;28.33;24.33;;;;;;;;5103630;27;45467;-75
2022/04/22 10:55:32;;;;;;;;;57.75;43.75;;;;;;;;5109933;27;45436;-75
2022/04/22 10:58:13;;;;;;;;;47.50;39.00;;;;;;;;5122932;27;46462;-75
2022/04/22 11:00:42;;;;;;;;;46.67;38.00;;;;;;;;5123363;27;45244;-75
2022/04/22 11:03:19;;;;;;;;;33.00;28.33;;;;;;;;5122855;27;45301;-75
2022/04/22 11:05:50;;;;;;;;;54.50;41.25;;;;;;;;5103874;27;47506;-75
2022/04/22 11:08:17;;;;;;;;;28.33;23.33;;;;;;;;5103883;27;47235;-74
2022/04/22 11:10:45;;;;;;;;;52.00;42.75;;;;;;;;5122342;27;45432;-75
2022/04/22 11:13:26;;;;;;;;;17.33;14.33;;;;;;;;5122401;27;45381;-76
2022/04/22 11:15:51;;;;;;;;;10.00;10.00;;;;;;;;5119204;27;45939;-75
2022/04/22 11:18:17;;;;;;;;;23.67;21.33;;;;;;;;5123766;27;45866;-77
2022/04/22 11:20:43;;;;;;;;;35.00;31.67;;;;;;;;5123443;27;45448;-75
2022/04/22 11:23:12;;;;;;;;;11.00;10.67;;;;;;;;5116824;27;45292;-76
2022/04/22 11:25:38;;;;;;;;;17.33;17.33;;;;;;;;5105450;27;45321;-77
2022/04/22 11:28:04;;;;;;;;;23.33;18.33;;;;;;;;5111875;27;46216;-77
2022/04/22 11:30:31;;;;;;;;;13.33;13.33;;;;;;;;5102070;27;45331;-76
2022/04/22 11:33:02;;;;;;;;;16.00;15.33;;;;;;;;5101227;27;45705;-75
2022/04/22 11:35:31;;;;;;;;;9.33;9.33;;;;;;;;5085779;27;47596;-77
2022/04/22 11:37:57;;;;;;;;;10.67;10.67;;;;;;;;5104225;27;47884;-75
2022/04/22 11:40:22;;;;;;;;;7.33;7.33;;;;;;;;5122866;27;45389;-75
2022/04/22 11:42:51;;;;;;;;;9.67;9.00;;;;;;;;5104850;27;45326;-77
2022/04/22 11:45:16;;;;;;;;;47.50;38.75;;;;;;;;5103427;27;46714;-77
2022/04/22 11:47:42;;;;;;;;;24.00;24.00;;;;;;;;5122380;27;46128;-77
2022/04/22 11:50:08;;;;;;;;;8.33;8.33;;;;;;;;5104434;27;45307;-77
2022/04/22 11:52:34;;;;;;;;;14.33;13.67;;;;;;;;5121860;27;45326;-75
2022/04/22 11:55:00;;;;;;;;;11.67;10.00;;;;;;;;5121776;27;45503;-74
2022/04/22 11:57:26;;;;;;;;;14.00;13.00;;;;;;;;5103942;27;47565;-74
2022/04/22 12:05:49;;;;;;;;;57.00;43.00;;;;;;;;5122168;27;45352;-74
2022/04/22 12:08:15;;;;;;;;;50.00;39.75;;;;;;;;5121890;27;45400;-75
2022/04/22 12:10:43;;;;;;;;;44.00;33.33;;;;;;;;5086960;27;45320;-75
2022/04/22 12:13:09;;;;;;;;;22.33;21.00;;;;;;;;5100822;27;45309;-75
2022/04/22 12:15:38;;;;;;;;;11.33;10.33;;;;;;;;5109724;27;45543;-75
2022/04/22 12:18:03;;;;;;;;;13.67;13.67;;;;;;;;5121836;27;45346;-74
2022/04/22 12:20:28;;;;;;;;;12.67;10.00;;;;;;;;5122138;27;45336;-74
2022/04/22 12:22:55;;;;;;;;;26.33;24.33;;;;;;;;5111149;27;45417;-75
2022/04/22 12:25:21;;;;;;;;;7.00;7.00;;;;;;;;5082733;27;47120;-74
2022/04/22 12:28:07;;;;;;;;;7.00;6.00;;;;;;;;5100789;27;45394;-75
2022/04/22 12:30:37;;;;;;;;;9.67;8.33;;;;;;;;5101102;27;45292;-75
2022/04/22 12:33:02;;;;;;;;;7.00;7.00;;;;;;;;5082490;27;45541;-76
2022/04/22 12:35:28;;;;;;;;;22.33;18.33;;;;;;;;5080710;27;46931;-75
2022/04/22 12:37:54;;;;;;;;;6.00;6.00;;;;;;;;5082266;27;47142;-75
2022/04/22 12:40:21;;;;;;;;;3.00;3.00;;;;;;;;5101559;27;45428;-75
2022/04/22 12:42:46;;;;;;;;;7.00;7.00;;;;;;;;5099967;27;45397;-75
2022/04/22 12:53:41;;;;;;;;;6.00;6.00;;;;;;;;5101160;27;45354;-75
2022/04/22 12:56:08;;;;;;;;;4.67;4.67;;;;;;;;5081125;27;46131;-75
2022/04/22 12:58:50;;;;;;;;;7.00;7.00;;;;;;;;5100214;27;45949;-74
2022/04/22 13:01:19;;;;;;;;;44.67;37.00;;;;;;;;5100417;27;45311;-74
2022/04/22 13:03:45;;;;;;;;;4.67;4.67;;;;;;;;5100600;27;45385;-75
2022/04/22 13:06:10;;;;;;;;;35.33;30.00;;;;;;;;5100445;27;45426;-74
2022/04/22 13:08:35;;;;;;;;;19.67;17.33;;;;;;;;5100664;27;46048;-75
2022/04/22 13:11:02;;;;;;;;;6.67;6.67;;;;;;;;5101052;27;45243;-74
2022/04/22 13:13:27;;;;;;;;;6.33;5.67;;;;;;;;5100956;27;45369;-75
2022/04/22 13:15:53;;;;;;;;;18.33;16.00;;;;;;;;5111980;27;45414;-75
2022/04/22 13:18:20;;;;;;;;;15.67;12.67;;;;;;;;5121440;27;46580;-75
2022/04/22 13:20:45;;;;;;;;;6.67;6.67;;;;;;;;5102782;27;45461;-76
2022/04/22 13:23:10;;;;;;;;;7.67;7.67;;;;;;;;5121749;27;45219;-76
2022/04/22 13:25:36;;;;;;;;;7.00;7.00;;;;;;;;5121369;27;45543;-75
2022/04/22 13:28:02;;;;;;;;;7.00;7.00;;;;;;;;5121093;27;45416;-75
2022/04/22 13:30:27;;;;;;;;;7.67;7.33;;;;;;;;5121310;27;45251;-74
2022/04/22 13:32:53;;;;;;;;;4.67;4.67;;;;;;;;5121427;27;45339;-73
2022/04/22 13:35:20;;;;;;;;;6.00;6.00;;;;;;;;5121049;27;45156;-74
2022/04/22 13:37:45;;;;;;;;;6.33;6.33;;;;;;;;5121175;27;46159;-74
2022/04/22 13:40:11;;;;;;;;;6.67;6.67;;;;;;;;5101243;27;45280;-74
2022/04/22 13:42:36;;;;;;;;;33.33;31.33;;;;;;;;5098987;27;45394;-75
2022/04/22 13:53:13;;;;;;;;;5.33;5.33;;;;;;;;5102200;27;45575;-75
2022/04/22 13:55:39;;;;;;;;;10.67;10.00;;;;;;;;5102969;27;45516;-75
2022/04/22 13:58:04;;;;;;;;;7.33;7.00;;;;;;;;5079716;27;47432;-75
2022/04/22 14:00:30;;;;;;;;;13.33;13.33;;;;;;;;5097874;27;45609;-75
2022/04/22 14:02:56;;;;;;;;;7.00;5.33;;;;;;;;5098334;27;45356;-74
2022/04/22 14:05:22;;;;;;;;;10.67;8.67;;;;;;;;5098250;27;45451;-75
2022/04/22 14:07:48;;;;;;;;;8.33;8.00;;;;;;;;5097838;27;46309;-74
2022/04/22 14:10:14;;;;;;;;;7.67;6.33;;;;;;;;5097467;27;45263;-74
2022/04/22 14:12:39;;;;;;;;;6.67;6.67;;;;;;;;5082182;27;45802;-76
2022/04/22 14:15:04;;;;;;;;;7.00;7.00;;;;;;;;5103665;27;45445;-74
2022/04/22 14:17:30;;;;;;;;;6.00;6.00;;;;;;;;5120145;27;46665;-74
2022/04/22 14:19:55;;;;;;;;;18.67;17.00;;;;;;;;5119849;27;45316;-75
2022/04/22 14:22:20;;;;;;;;;6.00;6.00;;;;;;;;5102502;27;45270;-74
2022/04/22 14:24:46;;;;;;;;;9.33;8.67;;;;;;;;5106306;27;45578;-76
2022/04/22 14:27:14;;;;;;;;;7.00;7.00;;;;;;;;5103024;27;45306;-75
2022/04/22 14:29:39;;;;;;;;;33.00;30.00;;;;;;;;5105719;27;45532;-75
2022/04/22 14:32:05;;;;;;;;;9.33;9.33;;;;;;;;5093060;27;45535;-74
2022/04/22 14:34:31;;;;;;;;;7.00;7.00;;;;;;;;5110838;27;45751;-74
2022/04/22 14:36:56;;;;;;;;;8.33;8.33;;;;;;;;5102717;27;46051;-75
2022/04/22 14:39:21;;;;;;;;;7.00;7.00;;;;;;;;5105720;27;45381;-74
2022/04/22 14:41:46;;;;;;;;;9.33;9.33;;;;;;;;5123196;27;45296;-74
2022/04/22 14:44:14;;;;;;;;;27.33;23.00;;;;;;;;5123269;27;45268;-74
2022/04/22 14:46:40;;;;;;;;;8.00;8.00;;;;;;;;5123458;27;45409;-74
2022/04/22 14:49:05;;;;;;;;;5.67;5.67;;;;;;;;5104660;27;45909;-74
2022/04/22 14:51:30;;;;;;;;;12.67;12.67;;;;;;;;5119001;27;45334;-74
2022/04/22 14:53:55;;;;;;;;;39.67;34.33;;;;;;;;5098815;27;46139;-75
2022/04/22 14:56:21;;;;;;;;;10.67;9.00;;;;;;;;5135184;27;46266;-74
2022/04/22 14:58:47;;;;;;;;;30.33;26.33;;;;;;;;5094910;27;45306;-74
2022/04/22 15:01:12;;;;;;;;;7.00;6.00;;;;;;;;5089344;27;45447;-77
2022/04/22 15:03:37;;;;;;;;;8.00;8.00;;;;;;;;5084099;27;47250;-78
2022/04/22 15:06:03;;;;;;;;;12.67;11.00;;;;;;;;5101753;27;45801;-78
2022/04/22 15:08:28;;;;;;;;;15.33;15.33;;;;;;;;5103088;27;45370;-78
2022/04/22 15:10:53;;;;;;;;;6.00;5.33;;;;;;;;5091788;27;45397;-77
2022/04/22 15:13:20;;;;;;;;;12.00;12.00;;;;;;;;5137131;27;45652;-78
2022/04/22 15:15:45;;;;;;;;;16.33;13.67;;;;;;;;5110471;27;45816;-77
2022/04/22 15:26:22;;;;;;;;;7.67;7.67;;;;;;;;5101902;27;45307;-77
2022/04/22 15:28:48;;;;;;;;;9.00;8.33;;;;;;;;5102260;27;45391;-78
2022/04/22 15:31:14;;;;;;;;;7.67;7.67;;;;;;;;5085329;27;45316;-78
2022/04/22 15:33:43;;;;;;;;;8.00;8.00;;;;;;;;5084754;27;45839;-76
2022/04/22 15:36:10;;;;;;;;;15.33;14.67;;;;;;;;5099488;27;45550;-77
2022/04/22 15:38:36;;;;;;;;;9.00;9.00;;;;;;;;5088397;27;45359;-78
2022/04/22 15:41:06;;;;;;;;;9.67;9.67;;;;;;;;5089939;27;45360;-76
2022/04/22 15:43:32;;;;;;;;;7.67;7.67;;;;;;;;5092565;27;45540;-77
2022/04/22 15:45:58;;;;;;;;;9.67;9.00;;;;;;;;5095614;27;45442;-79